createdAt,value
2018-04-07T00:00:51.890Z,5.13
2018-04-07T00:03:19.507Z,6.03
2018-04-07T00:05:48.382Z,4.93
2018-04-07T00:08:15.996Z,5.30
2018-04-07T00:10:43.599Z,5.10
2018-04-07T00:13:11.208Z,4.77
2018-04-07T00:15:38.812Z,5.70
2018-04-07T00:18:06.394Z,5.33
2018-04-07T00:20:34.769Z,5.27
2018-04-07T00:23:03.154Z,4.93
2018-04-07T00:25:31.521Z,4.63
2018-04-07T00:27:59.882Z,5.20
2018-04-07T00:30:27.496Z,4.70
2018-04-07T00:32:55.091Z,5.30
2018-04-07T00:35:22.698Z,4.53
2018-04-07T00:37:51.047Z,5.00
2018-04-07T00:40:18.668Z,5.40
2018-04-07T00:42:46.255Z,4.37
2018-04-07T00:45:13.867Z,4.23
2018-04-07T00:47:41.489Z,5.43
2018-04-07T00:50:09.126Z,5.30
2018-04-07T00:52:48.531Z,4.87
2018-04-07T00:55:16.152Z,5.00
2018-04-07T00:57:43.742Z,5.37
2018-04-07T01:00:12.110Z,5.30
2018-04-07T01:02:40.476Z,4.60
2018-04-07T01:05:08.088Z,4.83
2018-04-07T01:07:35.683Z,4.60
2018-04-07T01:10:03.292Z,5.03
2018-04-07T01:12:30.891Z,5.10
2018-04-07T01:14:58.561Z,4.30
2018-04-07T01:17:26.138Z,4.60
2018-04-07T01:19:53.768Z,5.10
2018-04-07T01:22:21.366Z,5.53
2018-04-07T01:24:48.975Z,5.20
2018-04-07T01:27:16.570Z,5.70
2018-04-07T01:29:44.165Z,4.50
2018-04-07T01:32:12.526Z,5.53
2018-04-07T01:34:40.135Z,5.23
2018-04-07T01:37:07.729Z,5.20
2018-04-07T01:39:35.363Z,4.93
2018-04-07T01:42:02.949Z,4.80
2018-04-07T01:44:30.567Z,5.27
2018-04-07T01:46:58.162Z,5.17
2018-04-07T01:49:25.771Z,5.00
2018-04-07T01:51:53.446Z,5.90
2018-04-07T01:54:21.061Z,5.20
2018-04-07T01:56:48.660Z,6.20
2018-04-07T01:59:16.312Z,5.80
2018-04-07T02:01:43.946Z,5.07
2018-04-07T02:04:11.549Z,5.57
2018-04-07T02:06:39.149Z,4.87
2018-04-07T02:09:06.766Z,5.80
2018-04-07T02:11:34.359Z,4.70
2018-04-07T02:14:01.979Z,6.47
2018-04-07T02:16:30.347Z,5.27
2018-04-07T02:18:58.718Z,4.93
2018-04-07T02:21:26.306Z,5.40
2018-04-07T02:23:53.914Z,5.13
2018-04-07T02:26:21.517Z,5.70
2018-04-07T02:28:49.891Z,5.90
2018-04-07T02:31:18.249Z,4.50
2018-04-07T02:33:45.848Z,6.00
2018-04-07T02:36:13.464Z,5.40
2018-04-07T02:38:41.067Z,5.70
2018-04-07T02:41:08.683Z,5.47
2018-04-07T02:43:36.276Z,5.17
2018-04-07T02:46:04.654Z,4.70
2018-04-07T02:48:33.002Z,5.67
2018-04-07T02:51:00.629Z,6.00
2018-04-07T02:53:28.223Z,5.47
2018-04-07T02:55:55.834Z,5.17
2018-04-07T02:58:23.429Z,4.63
2018-04-07T03:00:51.034Z,5.50
2018-04-07T03:03:19.383Z,5.43
2018-04-07T03:05:46.986Z,5.50
2018-04-07T03:08:14.600Z,4.60
2018-04-07T03:10:42.219Z,5.97
2018-04-07T03:13:09.814Z,5.10
2018-04-07T03:15:38.552Z,5.27
2018-04-07T03:18:06.918Z,5.07
2018-04-07T03:20:35.286Z,4.80
2018-04-07T03:23:02.888Z,5.93
2018-04-07T03:25:30.504Z,5.57
2018-04-07T03:27:58.095Z,5.47
2018-04-07T03:30:25.699Z,5.73
2018-04-07T03:32:54.061Z,5.37
2018-04-07T03:35:21.664Z,4.90
2018-04-07T03:37:49.259Z,5.53
2018-04-07T03:40:16.874Z,5.93
2018-04-07T03:42:44.477Z,5.17
2018-04-07T03:45:12.851Z,4.70
2018-04-07T03:47:41.203Z,5.63
2018-04-07T03:50:08.810Z,4.50
2018-04-07T03:52:36.404Z,5.10
2018-04-07T03:55:04.056Z,4.83
2018-04-07T03:57:31.694Z,6.33
2018-04-07T03:59:59.308Z,5.63
2018-04-07T04:02:26.908Z,5.70
2018-04-07T04:04:54.527Z,5.50
2018-04-07T04:07:22.127Z,5.50
2018-04-07T04:09:49.731Z,4.97
2018-04-07T04:12:17.338Z,5.70
2018-04-07T04:14:45.731Z,4.80
2018-04-07T04:17:13.325Z,5.80
2018-04-07T04:19:40.944Z,6.00
2018-04-07T04:22:09.317Z,5.77
2018-04-07T04:24:37.688Z,5.30
2018-04-07T04:27:06.044Z,5.80
2018-04-07T04:29:33.662Z,5.60
2018-04-07T04:32:01.284Z,5.43
2018-04-07T04:34:28.900Z,5.73
2018-04-07T04:36:56.476Z,5.10
2018-04-07T04:39:24.071Z,5.17
2018-04-07T04:41:52.444Z,5.30
2018-04-07T04:44:20.026Z,4.63
2018-04-07T04:46:47.679Z,5.40
2018-04-07T04:49:16.158Z,5.20
2018-04-07T04:51:44.526Z,4.63
2018-04-07T04:54:12.918Z,5.20
2018-04-07T04:56:41.403Z,5.30
2018-04-07T04:59:09.754Z,4.90
2018-04-07T05:01:37.367Z,7.40
2018-04-07T05:04:04.955Z,5.43
2018-04-07T05:06:32.577Z,4.87
2018-04-07T05:09:00.843Z,4.90
2018-04-07T05:11:29.225Z,5.30
2018-04-07T05:13:56.826Z,5.60
2018-04-07T05:16:24.425Z,4.63
2018-04-07T05:18:52.795Z,4.77
2018-04-07T05:21:20.606Z,4.93
2018-04-07T05:23:48.431Z,4.70
2018-04-07T05:26:16.596Z,4.90
2018-04-07T05:28:44.271Z,4.80
2018-04-07T05:31:12.410Z,4.93
2018-04-07T05:33:40.139Z,5.17
2018-04-07T05:36:07.792Z,4.60
2018-04-07T05:38:36.198Z,4.70
2018-04-07T05:41:03.870Z,4.90
2018-04-07T05:43:31.584Z,5.30
2018-04-07T05:45:59.976Z,4.57
2018-04-07T05:48:28.338Z,4.70
2018-04-07T05:50:57.026Z,5.67
2018-04-07T05:53:24.896Z,5.10
2018-04-07T05:55:52.582Z,5.53
2018-04-07T05:58:20.232Z,5.63
2018-04-07T06:00:50.031Z,5.43
2018-04-07T06:03:19.497Z,5.20
2018-04-07T06:05:47.115Z,5.10
2018-04-07T06:08:15.067Z,5.13
2018-04-07T06:10:42.843Z,5.33
2018-04-07T06:13:11.209Z,5.30
2018-04-07T06:15:39.589Z,5.20
2018-04-07T06:18:07.982Z,5.37
2018-04-07T06:20:35.604Z,5.50
2018-04-07T06:23:03.523Z,5.37
2018-04-07T06:25:31.144Z,5.60
2018-04-07T06:27:58.821Z,5.20
2018-04-07T06:30:26.428Z,5.50
2018-04-07T06:32:54.055Z,5.80
2018-04-07T06:35:23.037Z,6.60
2018-04-07T06:37:50.733Z,5.50
2018-04-07T06:40:18.352Z,5.87
2018-04-07T06:42:45.954Z,5.20
2018-04-07T06:45:13.590Z,6.17
2018-04-07T06:47:41.942Z,5.17
2018-04-07T06:50:09.543Z,5.80
2018-04-07T06:52:37.150Z,6.40
2018-04-07T06:55:04.818Z,5.50
2018-04-07T06:57:32.500Z,5.47
2018-04-07T07:00:00.184Z,5.80
2018-04-07T07:02:28.553Z,5.47
2018-04-07T07:04:56.919Z,5.47
2018-04-07T07:07:24.614Z,5.60
2018-04-07T07:09:53.559Z,6.03
2018-04-07T07:12:22.522Z,6.10
2018-04-07T07:14:51.467Z,6.00
2018-04-07T07:17:20.435Z,5.93
2018-04-07T07:19:49.388Z,5.93
2018-04-07T07:22:17.020Z,6.50
2018-04-07T07:24:44.633Z,6.43
2018-04-07T07:27:12.243Z,6.90
2018-04-07T07:29:39.922Z,5.50
2018-04-07T07:32:07.591Z,5.63
2018-04-07T07:34:36.593Z,5.83
2018-04-07T07:37:04.234Z,5.70
2018-04-07T07:39:32.600Z,5.60
2018-04-07T07:42:00.267Z,5.90
2018-04-07T07:44:27.826Z,5.97
2018-04-07T07:46:56.620Z,6.53
2018-04-07T07:49:25.010Z,5.90
2018-04-07T07:51:52.634Z,6.20
2018-04-07T07:54:20.270Z,6.17
2018-04-07T07:56:47.882Z,5.60
2018-04-07T07:59:16.609Z,5.20
2018-04-07T08:01:44.233Z,6.10
2018-04-07T08:04:12.603Z,5.97
2018-04-07T08:06:40.250Z,5.60
2018-04-07T08:09:07.891Z,6.73
2018-04-07T08:11:36.874Z,6.30
2018-04-07T08:14:04.470Z,5.73
2018-04-07T08:16:32.091Z,5.80
2018-04-07T08:18:59.786Z,5.53
2018-04-07T08:21:27.422Z,6.57
2018-04-07T08:23:55.020Z,5.07
2018-04-07T08:26:22.626Z,6.50
2018-04-07T08:28:50.228Z,6.10
2018-04-07T08:31:17.838Z,5.70
2018-04-07T08:33:45.430Z,6.23
2018-04-07T08:36:13.063Z,6.07
2018-04-07T08:38:40.650Z,6.20
2018-04-07T08:41:08.255Z,6.00
2018-04-07T08:43:35.861Z,6.23
2018-04-07T08:46:03.476Z,5.97
2018-04-07T08:48:31.082Z,6.57
2018-04-07T08:50:58.713Z,5.90
2018-04-07T08:53:35.063Z,6.63
2018-04-07T08:56:02.723Z,6.73
2018-04-07T08:58:31.204Z,6.10
2018-04-07T09:00:58.827Z,6.67
2018-04-07T09:03:26.429Z,5.63
2018-04-07T09:05:54.047Z,7.20
2018-04-07T09:08:21.667Z,6.27
2018-04-07T09:10:49.252Z,6.70
2018-04-07T09:13:16.863Z,6.77
2018-04-07T09:15:44.449Z,6.50
2018-04-07T09:18:12.940Z,6.03
2018-04-07T09:20:41.314Z,6.67
2018-04-07T09:23:09.712Z,7.60
2018-04-07T09:25:37.310Z,6.57
2018-04-07T09:28:05.042Z,6.53
2018-04-07T09:30:32.695Z,6.50
2018-04-07T09:33:03.015Z,6.77
2018-04-07T09:35:30.630Z,7.20
2018-04-07T09:37:58.229Z,8.10
2018-04-07T09:40:26.611Z,6.67
2018-04-07T09:42:55.004Z,6.90
2018-04-07T09:45:22.608Z,7.10
2018-04-07T09:47:50.228Z,6.40
2018-04-07T09:50:17.826Z,7.20
2018-04-07T09:52:45.472Z,7.47
2018-04-07T09:55:13.061Z,7.40
2018-04-07T09:57:40.697Z,7.20
2018-04-07T10:00:08.310Z,6.80
2018-04-07T10:02:36.704Z,7.03
2018-04-07T10:05:04.307Z,6.50
2018-04-07T10:07:33.474Z,7.10
2018-04-07T10:10:01.163Z,7.30
2018-04-07T10:12:28.780Z,7.53
2018-04-07T10:14:56.404Z,7.07
2018-04-07T10:17:24.019Z,7.60
2018-04-07T10:19:51.682Z,7.53
2018-04-07T10:22:19.294Z,7.50
2018-04-07T10:24:47.686Z,7.93
2018-04-07T10:27:15.381Z,7.53
2018-04-07T10:29:43.052Z,7.57
2018-04-07T10:32:10.678Z,7.90
2018-04-07T10:34:39.774Z,7.70
2018-04-07T10:37:07.399Z,8.33
2018-04-07T10:39:35.021Z,8.50
2018-04-07T10:42:03.407Z,7.70
2018-04-07T10:44:31.002Z,7.47
2018-04-07T10:46:58.630Z,7.87
2018-04-07T10:49:26.504Z,8.03
2018-04-07T10:51:54.120Z,7.77
2018-04-07T10:54:21.725Z,9.53
2018-04-07T10:56:49.441Z,7.40
2018-04-07T10:59:17.144Z,7.93
2018-04-07T11:01:44.811Z,8.37
2018-04-07T11:04:12.413Z,9.30
2018-04-07T11:06:40.040Z,8.90
2018-04-07T11:09:07.671Z,7.70
2018-04-07T11:11:36.066Z,9.30
2018-04-07T11:14:05.094Z,8.33
2018-04-07T11:16:32.703Z,8.00
2018-04-07T11:19:00.395Z,8.77
2018-04-07T11:21:28.017Z,8.10
2018-04-07T11:23:55.660Z,8.60
2018-04-07T11:26:23.288Z,7.93
2018-04-07T11:28:50.931Z,8.30
2018-04-07T11:31:19.326Z,9.10
2018-04-07T11:33:46.949Z,9.00
2018-04-07T11:36:14.556Z,8.33
2018-04-07T11:38:42.180Z,9.17
2018-04-07T11:41:10.537Z,9.03
2018-04-07T11:43:38.251Z,8.50
2018-04-07T11:46:05.848Z,8.87
2018-04-07T11:48:33.497Z,8.47
2018-04-07T11:51:02.884Z,8.90
2018-04-07T11:53:30.651Z,8.50
2018-04-07T11:55:58.253Z,9.63
2018-04-07T11:58:25.876Z,9.10
2018-04-07T12:00:53.579Z,8.13
2018-04-07T12:03:21.205Z,7.67
2018-04-07T12:05:48.800Z,7.47
2018-04-07T12:08:16.405Z,7.57
2018-04-07T12:10:45.515Z,8.33
2018-04-07T12:13:13.138Z,7.40
2018-04-07T12:15:40.752Z,8.50
2018-04-07T12:18:08.370Z,9.17
2018-04-07T12:20:36.745Z,8.00
2018-04-07T12:23:04.355Z,7.90
2018-04-07T12:25:31.962Z,8.10
2018-04-07T12:27:59.585Z,8.60
2018-04-07T12:30:27.203Z,7.40
2018-04-07T12:32:55.582Z,7.27
2018-04-07T12:35:24.531Z,7.07
2018-04-07T12:37:52.174Z,7.60
2018-04-07T12:40:19.779Z,7.20
2018-04-07T12:42:48.270Z,7.60
2018-04-07T12:45:17.210Z,8.43
2018-04-07T12:47:47.615Z,8.20
2018-04-07T12:50:15.211Z,8.03
2018-04-07T12:52:42.830Z,7.37
2018-04-07T12:55:10.440Z,8.00
2018-04-07T13:18:55.204Z,7.80
2018-04-07T13:24:19.181Z,7.03
2018-04-07T13:32:56.879Z,7.10
2018-04-07T13:35:25.950Z,7.80
2018-04-07T13:37:54.352Z,7.50
2018-04-07T13:40:21.960Z,7.10
2018-04-07T13:42:50.929Z,7.30
2018-04-07T13:45:19.868Z,7.17
2018-04-07T13:47:48.824Z,7.57
2018-04-07T13:50:17.768Z,8.15
2018-04-07T13:52:46.142Z,8.03
2018-04-07T13:55:14.518Z,7.77
2018-04-07T13:57:42.127Z,8.10
2018-04-07T14:00:10.438Z,9.50
2018-04-07T14:02:38.065Z,8.23
2018-04-07T14:05:13.727Z,8.50
2018-04-07T14:07:41.328Z,8.33
2018-04-07T14:10:08.920Z,8.60
2018-04-07T14:12:36.561Z,8.33
2018-04-07T14:15:04.157Z,8.47
2018-04-07T14:17:31.746Z,9.47
2018-04-07T14:19:59.721Z,8.23
2018-04-07T14:22:27.314Z,8.00
2018-04-07T14:24:54.925Z,8.30
2018-04-07T14:27:22.574Z,8.30
2018-04-07T14:29:50.249Z,8.70
2018-04-07T14:32:17.837Z,8.13
2018-04-07T14:34:45.455Z,7.97
2018-04-07T14:37:13.085Z,10.00
2018-04-07T14:39:40.862Z,9.30
2018-04-07T14:42:08.438Z,8.70
2018-04-07T14:44:36.814Z,8.57
2018-04-07T14:47:04.414Z,9.23
2018-04-07T14:49:48.102Z,9.60
2018-04-07T14:52:18.728Z,10.47
2018-04-07T14:54:46.328Z,8.80
2018-04-07T14:57:13.971Z,8.57
2018-04-07T14:59:42.452Z,8.10
2018-04-07T15:02:10.830Z,8.40
2018-04-07T15:04:39.200Z,8.57
2018-04-07T15:07:07.562Z,8.50
2018-04-07T15:09:35.173Z,8.60
2018-04-07T15:12:02.757Z,8.47
2018-04-07T15:14:30.372Z,7.50
2018-04-07T15:16:58.751Z,7.13
2018-04-07T15:19:27.239Z,7.20
2018-04-07T15:21:55.611Z,8.87
2018-04-07T15:24:23.991Z,7.63
2018-04-07T15:26:52.371Z,7.40
2018-04-07T15:29:20.742Z,7.77
2018-04-07T15:31:48.516Z,7.43
2018-04-07T15:34:16.225Z,9.00
2018-04-07T15:36:43.793Z,8.60
2018-04-07T15:39:12.275Z,9.53
2018-04-07T15:41:39.858Z,9.67
2018-04-07T15:44:07.478Z,9.60
2018-04-07T15:46:35.066Z,10.03
2018-04-07T15:49:02.677Z,10.50
2018-04-07T15:51:30.302Z,10.27
2018-04-07T15:53:57.918Z,9.67
2018-04-07T15:56:25.526Z,9.63
2018-04-07T15:58:53.143Z,10.23
2018-04-07T16:01:20.729Z,8.60
2018-04-07T16:03:48.343Z,9.80
2018-04-07T16:06:16.698Z,9.07
2018-04-07T16:08:44.322Z,9.50
2018-04-07T16:11:11.907Z,9.60
2018-04-07T16:13:41.026Z,8.93
2018-04-07T16:16:09.390Z,9.90
2018-04-07T16:18:36.999Z,11.63
2018-04-07T16:21:04.643Z,11.40
2018-04-07T16:23:32.258Z,9.50
2018-04-07T16:25:59.848Z,11.80
2018-04-07T16:28:28.335Z,11.00
2018-04-07T16:30:56.687Z,10.00
2018-04-07T16:33:25.801Z,9.37
2018-04-07T16:35:54.151Z,9.00
2018-04-07T16:38:21.761Z,8.60
2018-04-07T16:40:49.379Z,9.10
2018-04-07T16:43:17.078Z,9.40
2018-04-07T16:45:45.566Z,9.00
2018-04-07T16:48:13.163Z,11.37
2018-04-07T16:50:40.771Z,10.10
2018-04-07T16:53:09.126Z,9.07
2018-04-07T16:55:36.742Z,13.50
2018-04-07T16:58:04.373Z,9.00
2018-04-07T17:00:32.761Z,8.47
2018-04-07T17:03:00.623Z,8.70
2018-04-07T17:05:28.999Z,8.80
2018-04-07T17:07:57.373Z,8.47
2018-04-07T17:10:25.050Z,8.10
2018-04-07T17:12:53.413Z,8.43
2018-04-07T17:15:21.925Z,8.80
2018-04-07T17:17:49.509Z,9.07
2018-04-07T17:20:17.121Z,7.87
2018-04-07T17:22:45.472Z,8.40
2018-04-07T17:25:13.069Z,8.57
2018-04-07T17:27:41.422Z,7.60
2018-04-07T17:30:09.134Z,7.73
2018-04-07T17:32:36.770Z,8.37
2018-04-07T17:35:05.141Z,8.80
2018-04-07T17:37:32.723Z,7.00
2018-04-07T17:40:01.107Z,14.73
2018-04-07T17:42:28.693Z,10.40
2018-04-07T17:44:56.315Z,7.77
2018-04-07T17:47:24.000Z,7.63
2018-04-07T17:49:52.467Z,7.10
2018-04-07T17:52:20.825Z,8.63
2018-04-07T17:54:50.045Z,7.93
2018-04-07T17:57:18.396Z,7.87
2018-04-07T17:59:46.086Z,8.73
2018-04-07T18:02:14.447Z,8.40
2018-04-07T18:04:42.073Z,9.60
2018-04-07T18:07:09.667Z,9.23
2018-04-07T18:09:37.281Z,9.40
2018-04-07T18:12:04.889Z,15.50
2018-04-07T18:14:32.491Z,24.23
2018-04-07T18:17:00.145Z,17.60
2018-04-07T18:19:27.806Z,14.83
2018-04-07T18:21:56.178Z,14.73
2018-04-07T18:24:24.776Z,10.13
2018-04-07T18:26:53.140Z,14.17
2018-04-07T18:29:21.729Z,15.83
2018-04-07T18:31:49.418Z,15.57
2018-04-07T18:34:17.033Z,22.27
2018-04-07T18:36:44.616Z,14.97
2018-04-07T18:39:12.996Z,10.57
2018-04-07T18:41:40.742Z,9.20
2018-04-07T18:44:08.362Z,13.00
2018-04-07T18:46:35.953Z,10.73
2018-04-07T18:49:03.574Z,9.10
2018-04-07T18:51:31.175Z,9.63
2018-04-07T18:53:58.759Z,9.77
2018-04-07T18:56:27.133Z,9.63
2018-04-07T18:58:54.726Z,9.63
2018-04-07T19:01:22.350Z,11.80
2018-04-07T19:03:49.955Z,10.77
2018-04-07T19:06:17.585Z,11.07
2018-04-07T19:08:45.946Z,11.33
2018-04-07T19:11:13.553Z,11.57
2018-04-07T19:13:41.156Z,10.33
2018-04-07T19:16:08.770Z,10.83
2018-04-07T19:18:36.382Z,10.10
2018-04-07T19:21:04.029Z,11.20
2018-04-07T19:23:31.622Z,11.80
2018-04-07T19:25:59.264Z,11.33
2018-04-07T19:28:26.856Z,11.17
2018-04-07T19:30:55.246Z,12.00
2018-04-07T19:33:22.847Z,11.30
2018-04-07T19:35:50.462Z,11.87
2018-04-07T19:38:18.092Z,12.10
2018-04-07T19:40:45.702Z,12.83
2018-04-07T19:43:13.306Z,12.67
2018-04-07T19:45:40.922Z,12.23
2018-04-07T19:48:08.511Z,11.67
2018-04-07T19:50:36.128Z,12.70
2018-04-07T19:53:04.535Z,13.73
2018-04-07T19:55:32.141Z,15.63
2018-04-07T19:57:59.734Z,16.80
2018-04-07T20:00:27.352Z,14.23
2018-04-07T20:02:54.966Z,14.50
2018-04-07T20:05:22.569Z,14.17
2018-04-07T20:07:50.153Z,15.97
2018-04-07T20:10:17.771Z,30.97
2018-04-07T20:12:45.363Z,22.03
2018-04-07T20:15:12.984Z,43.03
2018-04-07T20:17:40.561Z,16.77
2018-04-07T20:20:08.247Z,14.20
2018-04-07T20:22:35.846Z,14.77
2018-04-07T20:25:03.472Z,13.93
2018-04-07T20:27:31.088Z,15.93
2018-04-07T20:29:58.710Z,15.50
2018-04-07T20:32:27.069Z,16.63
2018-04-07T20:34:54.684Z,16.83
2018-04-07T20:37:22.281Z,16.00
2018-04-07T20:39:49.900Z,23.90
2018-04-07T20:42:27.112Z,22.37
2018-04-07T20:44:54.734Z,16.80
2018-04-07T20:47:24.009Z,14.30
2018-04-07T20:49:51.643Z,12.20
2018-04-07T20:52:19.237Z,13.13
2018-04-07T20:54:46.877Z,11.63
2018-04-07T20:57:14.440Z,12.73
2018-04-07T20:59:42.038Z,12.77
2018-04-07T21:02:10.419Z,13.67
2018-04-07T21:04:38.771Z,12.40
2018-04-07T21:07:06.431Z,12.80
2018-04-07T21:09:34.831Z,14.20
2018-04-07T21:12:03.210Z,13.03
2018-04-07T21:14:31.600Z,13.27
2018-04-07T21:16:59.209Z,13.13
2018-04-07T21:19:26.789Z,16.57
2018-04-07T21:21:54.397Z,14.10
2018-04-07T21:24:21.999Z,13.90
2018-04-07T21:26:49.614Z,13.27
2018-04-07T21:29:17.214Z,14.80
2018-04-07T21:31:44.826Z,14.60
2018-04-07T21:34:13.176Z,13.83
2018-04-07T21:36:40.796Z,14.83
2018-04-07T21:39:08.387Z,14.60
2018-04-07T21:41:35.998Z,13.97
2018-04-07T21:44:03.596Z,14.10
2018-04-07T21:46:31.213Z,14.20
2018-04-07T21:48:59.557Z,14.20
2018-04-07T21:51:27.257Z,14.83
2018-04-07T21:53:54.867Z,15.47
2018-04-07T21:56:22.480Z,15.80
2018-04-07T21:58:50.824Z,14.87
2018-04-07T22:01:18.448Z,14.40
2018-04-07T22:03:46.051Z,15.20
2018-04-07T22:06:13.666Z,15.80
2018-04-07T22:08:41.272Z,16.13
2018-04-07T22:11:08.882Z,15.67
2018-04-07T22:13:36.487Z,16.43
2018-04-07T22:16:04.136Z,16.00
2018-04-07T22:18:31.737Z,15.50
2018-04-07T22:20:59.362Z,15.60
2018-04-07T22:23:26.940Z,14.50
2018-04-07T22:25:54.564Z,14.77
2018-04-07T22:28:22.155Z,14.83
2018-04-07T22:30:49.772Z,16.57
2018-04-07T22:33:17.383Z,16.20
2018-04-07T22:35:44.998Z,16.10
2018-04-07T22:38:12.601Z,16.00
2018-04-07T22:40:40.216Z,16.70
2018-04-07T22:43:07.802Z,16.60
2018-04-07T22:45:35.418Z,17.47
2018-04-07T22:48:03.779Z,17.00
2018-04-07T22:50:31.490Z,16.30
2018-04-07T22:52:59.074Z,16.60
2018-04-07T22:55:26.681Z,17.27
2018-04-07T22:57:55.034Z,17.20
2018-04-07T23:00:25.421Z,16.73
2018-04-07T23:02:53.023Z,16.87
2018-04-07T23:05:20.600Z,17.80
2018-04-07T23:07:48.990Z,16.23
2018-04-07T23:10:17.337Z,17.43
2018-04-07T23:12:44.947Z,16.30
2018-04-07T23:15:12.549Z,17.13
2018-04-07T23:17:40.166Z,16.93
2018-04-07T23:20:07.769Z,17.70
2018-04-07T23:22:35.386Z,15.73
2018-04-07T23:25:02.987Z,16.50
2018-04-07T23:27:30.597Z,16.40
2018-04-07T23:29:58.199Z,16.10
2018-04-07T23:32:25.814Z,16.30
2018-04-07T23:34:54.171Z,16.97
2018-04-07T23:37:22.303Z,16.77
2018-04-07T23:39:50.415Z,16.70
2018-04-07T23:42:18.538Z,18.00
2018-04-07T23:44:46.646Z,17.90
2018-04-07T23:47:14.766Z,18.83
2018-04-07T23:49:42.874Z,19.07
2018-04-07T23:52:10.995Z,17.50
2018-04-07T23:54:39.861Z,18.53
2018-04-07T23:57:07.987Z,17.83
2018-04-07T23:59:36.094Z,19.00
